createdAt,value
2023-12-16T00:00:36.209Z,102075.60
2023-12-16T00:03:24.421Z,102085.20
2023-12-16T00:05:53.429Z,102096.40
2023-12-16T00:08:22.610Z,102100.80
2023-12-16T00:10:54.588Z,102103.20
2023-12-16T00:13:24.707Z,102096.60
2023-12-16T00:15:53.049Z,102092.00
2023-12-16T00:18:21.327Z,102090.60
2023-12-16T00:20:49.964Z,102092.20
2023-12-16T00:23:18.033Z,102104.00
2023-12-16T00:25:46.106Z,102104.00
2023-12-16T00:28:14.333Z,102114.80
2023-12-16T00:30:42.781Z,102121.80
2023-12-16T00:33:10.926Z,102128.20
2023-12-16T00:35:39.242Z,102137.60
2023-12-16T00:38:07.423Z,102132.60
2023-12-16T00:40:35.512Z,102133.00
2023-12-16T00:43:05.198Z,102131.60
2023-12-16T00:45:33.327Z,102120.00
2023-12-16T00:48:02.071Z,102127.80
2023-12-16T00:50:30.282Z,102131.40
2023-12-16T00:52:58.429Z,102121.80
2023-12-16T00:55:26.879Z,102120.00
2023-12-16T00:57:55.185Z,102118.80
2023-12-16T01:00:23.260Z,102121.80
2023-12-16T01:02:51.502Z,102118.60
2023-12-16T01:05:19.742Z,102114.20
2023-12-16T01:07:48.113Z,102111.00
2023-12-16T01:10:16.552Z,102107.00
2023-12-16T01:12:47.272Z,102106.00
2023-12-16T01:15:16.171Z,102104.60
2023-12-16T01:17:44.457Z,102107.00
2023-12-16T01:20:12.573Z,102107.00
2023-12-16T01:22:40.666Z,102108.20
2023-12-16T01:25:08.997Z,102117.20
2023-12-16T01:27:37.517Z,102117.40
2023-12-16T01:30:07.953Z,102114.60
2023-12-16T01:32:36.150Z,102115.60
2023-12-16T01:35:04.811Z,102107.20
2023-12-16T01:37:33.054Z,102105.00
2023-12-16T01:40:01.754Z,102106.20
2023-12-16T01:42:30.044Z,102104.20
2023-12-16T01:44:58.811Z,102096.80
2023-12-16T01:47:28.371Z,102089.00
2023-12-16T01:49:56.571Z,102084.40
2023-12-16T01:52:25.325Z,102092.60
2023-12-16T01:54:53.907Z,102094.80
2023-12-16T01:57:22.245Z,102093.80
2023-12-16T01:59:50.820Z,102108.40
2023-12-16T02:02:20.113Z,102114.20
2023-12-16T02:04:49.441Z,102113.40
2023-12-16T02:07:17.573Z,102124.00
2023-12-16T02:09:45.674Z,102132.40
2023-12-16T02:12:13.809Z,102128.40
2023-12-16T02:14:42.081Z,102134.80
2023-12-16T02:17:10.234Z,102125.40
2023-12-16T02:19:39.739Z,102123.20
2023-12-16T02:22:08.062Z,102115.80
2023-12-16T02:24:38.345Z,102118.60
2023-12-16T02:27:06.433Z,102108.00
2023-12-16T02:29:34.517Z,102106.40
2023-12-16T02:32:03.468Z,102112.40
2023-12-16T02:34:31.596Z,102114.60
2023-12-16T02:37:18.451Z,102121.40
2023-12-16T02:39:46.612Z,102123.00
2023-12-16T02:42:14.765Z,102117.80
2023-12-16T02:44:42.840Z,102124.00
2023-12-16T02:47:10.883Z,102122.80
2023-12-16T02:49:39.191Z,102116.20
2023-12-16T02:52:07.695Z,102121.20
2023-12-16T02:54:35.910Z,102127.20
2023-12-16T02:57:04.432Z,102120.00
2023-12-16T02:59:32.503Z,102126.80
2023-12-16T03:02:00.573Z,102123.80
2023-12-16T03:04:28.820Z,102128.00
2023-12-16T03:06:57.025Z,102122.80
2023-12-16T03:09:25.584Z,102120.20
2023-12-16T03:11:54.101Z,102114.60
2023-12-16T03:14:22.361Z,102115.80
2023-12-16T03:16:50.695Z,102115.20
2023-12-16T03:19:18.822Z,102123.20
2023-12-16T03:21:46.903Z,102121.20
2023-12-16T03:24:16.275Z,102119.00
2023-12-16T03:26:44.774Z,102122.00
2023-12-16T03:29:13.770Z,102126.40
2023-12-16T03:31:41.950Z,102118.40
2023-12-16T03:34:10.344Z,102114.00
2023-12-16T03:36:38.516Z,102111.80
2023-12-16T03:39:06.576Z,102114.00
2023-12-16T03:41:35.468Z,102113.20
2023-12-16T03:44:03.578Z,102115.60
2023-12-16T03:46:31.955Z,102120.60
2023-12-16T03:49:00.162Z,102123.60
2023-12-16T03:51:28.317Z,102125.40
2023-12-16T03:53:56.403Z,102120.40
2023-12-16T03:56:24.578Z,102124.20
2023-12-16T03:58:52.975Z,102124.40
2023-12-16T04:01:21.312Z,102131.00
2023-12-16T04:03:49.708Z,102123.40
2023-12-16T04:06:17.985Z,102117.80
2023-12-16T04:08:46.126Z,102116.60
2023-12-16T04:11:14.158Z,102115.60
2023-12-16T04:13:42.206Z,102109.00
2023-12-16T04:16:10.508Z,102114.20
2023-12-16T04:18:38.797Z,102117.00
2023-12-16T04:21:08.557Z,102126.00
2023-12-16T04:23:37.050Z,102132.40
2023-12-16T04:26:08.300Z,102138.20
2023-12-16T04:28:37.697Z,102139.60
2023-12-16T04:31:06.076Z,102130.80
2023-12-16T04:33:34.561Z,102131.00
2023-12-16T04:36:02.735Z,102126.20
2023-12-16T04:38:30.966Z,102135.00
2023-12-16T04:40:59.172Z,102132.40
2023-12-16T04:43:27.453Z,102134.20
2023-12-16T04:45:55.725Z,102136.80
2023-12-16T04:48:23.853Z,102132.40
2023-12-16T04:50:52.029Z,102129.00
2023-12-16T04:53:20.158Z,102128.40
2023-12-16T04:55:50.453Z,102123.40
2023-12-16T04:58:19.913Z,102124.40
2023-12-16T05:00:48.114Z,102124.80
2023-12-16T05:03:17.666Z,102132.60
2023-12-16T05:05:45.804Z,102135.00
2023-12-16T05:08:15.672Z,102130.80
2023-12-16T05:10:47.198Z,102131.40
2023-12-16T05:13:18.278Z,102126.60
2023-12-16T05:15:46.500Z,102139.80
2023-12-16T05:18:14.851Z,102138.80
2023-12-16T05:20:43.092Z,102136.80
2023-12-16T05:23:11.319Z,102137.00
2023-12-16T05:25:43.498Z,102130.20
2023-12-16T05:28:11.960Z,102134.00
2023-12-16T05:30:40.124Z,102135.00
2023-12-16T05:33:08.298Z,102143.80
2023-12-16T05:35:36.482Z,102148.00
2023-12-16T05:38:04.907Z,102149.60
2023-12-16T05:40:33.095Z,102146.00
2023-12-16T05:43:01.255Z,102151.00
2023-12-16T05:45:29.328Z,102146.40
2023-12-16T05:47:57.495Z,102148.00
2023-12-16T05:50:25.736Z,102136.60
2023-12-16T05:52:53.826Z,102139.80
2023-12-16T05:55:21.889Z,102142.80
2023-12-16T05:57:50.034Z,102150.00
2023-12-16T06:00:20.008Z,102142.00
2023-12-16T06:02:48.136Z,102141.00
2023-12-16T06:05:16.309Z,102140.00
2023-12-16T06:07:47.811Z,102137.40
2023-12-16T06:10:16.204Z,102137.00
2023-12-16T06:12:44.655Z,102131.60
2023-12-16T06:15:13.036Z,102121.40
2023-12-16T06:17:41.620Z,102124.80
2023-12-16T06:20:10.863Z,102123.60
2023-12-16T06:22:39.061Z,102121.80
2023-12-16T06:25:08.502Z,102108.00
2023-12-16T06:27:36.806Z,102102.00
2023-12-16T06:30:05.902Z,102101.60
2023-12-16T06:32:34.370Z,102099.40
2023-12-16T06:35:02.849Z,102096.60
2023-12-16T06:37:30.948Z,102091.20
2023-12-16T06:40:01.802Z,102091.80
2023-12-16T06:42:31.543Z,102087.40
2023-12-16T06:44:59.805Z,102093.40
2023-12-16T06:47:27.956Z,102102.20
2023-12-16T06:49:56.100Z,102104.40
2023-12-16T06:52:24.449Z,102110.80
2023-12-16T06:54:52.529Z,102106.00
2023-12-16T06:57:20.634Z,102113.00
2023-12-16T06:59:48.736Z,102110.40
2023-12-16T07:02:16.837Z,102111.80
2023-12-16T07:04:45.023Z,102114.80
2023-12-16T07:07:13.328Z,102120.20
2023-12-16T07:09:41.437Z,102107.00
2023-12-16T07:12:09.514Z,102107.60
2023-12-16T07:14:39.278Z,102101.20
2023-12-16T07:17:07.397Z,102110.20
2023-12-16T07:19:36.475Z,102122.60
2023-12-16T07:22:05.079Z,102122.40
2023-12-16T07:24:33.161Z,102130.40
2023-12-16T07:27:01.257Z,102130.20
2023-12-16T07:29:35.654Z,102136.60
2023-12-16T07:32:05.119Z,102140.40
2023-12-16T07:34:33.396Z,102137.40
2023-12-16T07:37:20.554Z,102139.40
2023-12-16T07:39:48.742Z,102139.80
2023-12-16T07:42:16.954Z,102136.00
2023-12-16T07:44:45.240Z,102135.40
2023-12-16T07:47:13.362Z,102134.40
2023-12-16T07:49:41.446Z,102124.00
2023-12-16T07:52:09.978Z,102120.40
2023-12-16T07:54:38.044Z,102116.60
2023-12-16T07:57:06.071Z,102119.40
2023-12-16T07:59:34.128Z,102114.40
2023-12-16T08:02:06.704Z,102114.60
2023-12-16T08:04:34.883Z,102133.00
2023-12-16T08:07:03.842Z,102143.80
2023-12-16T08:09:33.460Z,102152.60
2023-12-16T08:12:01.570Z,102146.20
2023-12-16T08:14:30.184Z,102142.80
2023-12-16T08:16:58.334Z,102137.00
2023-12-16T08:19:26.567Z,102136.80
2023-12-16T08:21:54.800Z,102140.00
2023-12-16T08:24:22.921Z,102143.40
2023-12-16T08:26:52.154Z,102145.00
2023-12-16T08:29:20.581Z,102142.60
2023-12-16T08:31:52.192Z,102144.40
2023-12-16T08:34:21.451Z,102141.00
2023-12-16T08:36:50.378Z,102150.00
2023-12-16T08:39:18.661Z,102155.00
2023-12-16T08:41:46.769Z,102152.40
2023-12-16T08:44:14.913Z,102142.20
2023-12-16T08:46:43.368Z,102164.80
2023-12-16T08:49:11.565Z,102154.60
2023-12-16T08:51:39.780Z,102151.60
2023-12-16T08:54:08.027Z,102156.40
2023-12-16T08:56:36.721Z,102157.80
2023-12-16T08:59:04.738Z,102153.00
2023-12-16T09:01:33.763Z,102158.80
2023-12-16T09:04:02.402Z,102155.40
2023-12-16T09:06:30.651Z,102162.40
2023-12-16T09:09:02.601Z,102161.00
2023-12-16T09:11:30.644Z,102169.20
2023-12-16T09:13:58.807Z,102171.80
2023-12-16T09:16:26.901Z,102178.00
2023-12-16T09:18:55.009Z,102181.40
2023-12-16T09:21:23.156Z,102182.00
2023-12-16T09:23:51.235Z,102181.20
2023-12-16T09:26:19.254Z,102177.00
2023-12-16T09:28:47.394Z,102180.00
2023-12-16T09:31:15.626Z,102179.80
2023-12-16T09:33:43.903Z,102176.60
2023-12-16T09:36:16.147Z,102194.80
2023-12-16T09:38:44.486Z,102188.40
2023-12-16T09:41:25.736Z,102188.00
2023-12-16T09:44:04.611Z,102194.60
2023-12-16T09:46:36.932Z,102194.60
2023-12-16T09:49:05.207Z,102189.40
2023-12-16T09:51:34.147Z,102189.80
2023-12-16T09:54:02.769Z,102190.60
2023-12-16T09:56:32.324Z,102189.20
2023-12-16T09:59:03.199Z,102188.40
2023-12-16T10:01:31.606Z,102193.40
2023-12-16T10:04:00.116Z,102188.00
2023-12-16T10:06:28.186Z,102182.60
2023-12-16T10:08:56.255Z,102183.80
2023-12-16T10:11:25.697Z,102184.00
2023-12-16T10:14:02.354Z,102177.80
2023-12-16T10:16:30.942Z,102175.40
2023-12-16T10:19:00.437Z,102168.40
2023-12-16T10:21:34.577Z,102166.00
2023-12-16T10:24:03.955Z,102177.80
2023-12-16T10:26:37.455Z,102164.00
2023-12-16T10:29:05.761Z,102162.40
2023-12-16T10:31:37.227Z,102166.40
2023-12-16T10:34:05.493Z,102160.80
2023-12-16T10:36:34.023Z,102157.00
2023-12-16T10:39:02.235Z,102146.40
2023-12-16T10:41:30.942Z,102154.20
2023-12-16T10:43:59.137Z,102145.80
2023-12-16T10:46:37.505Z,102147.20
2023-12-16T10:49:10.051Z,102142.00
2023-12-16T10:51:45.319Z,102140.00
2023-12-16T10:54:33.237Z,102136.00
2023-12-16T10:57:21.108Z,102126.20
2023-12-16T11:00:05.381Z,102113.80
2023-12-16T11:02:57.730Z,102107.20
2023-12-16T11:05:35.219Z,102108.20
2023-12-16T11:08:05.575Z,102114.40
2023-12-16T11:10:33.966Z,102119.60
2023-12-16T11:13:05.095Z,102111.80
2023-12-16T11:15:35.496Z,102114.80
2023-12-16T11:18:21.032Z,102109.00
2023-12-16T11:20:56.623Z,102103.40
2023-12-16T11:23:24.847Z,102106.40
2023-12-16T11:25:57.080Z,102099.80
2023-12-16T11:28:25.398Z,102100.40
2023-12-16T11:30:57.996Z,102098.00
2023-12-16T11:33:47.465Z,102095.80
2023-12-16T11:36:16.076Z,102088.60
2023-12-16T11:38:48.950Z,102091.40
2023-12-16T11:41:36.062Z,102078.20
2023-12-16T11:44:04.384Z,102074.40
2023-12-16T11:46:38.756Z,102068.60
2023-12-16T11:49:16.037Z,102063.00
2023-12-16T11:51:45.537Z,102058.60
2023-12-16T11:54:13.864Z,102052.00
2023-12-16T11:56:43.240Z,102055.40
2023-12-16T11:59:11.491Z,102040.40
2023-12-16T12:01:39.739Z,102033.00
2023-12-16T12:04:08.841Z,102025.60
2023-12-16T12:06:38.359Z,102017.40
2023-12-16T12:09:07.226Z,102009.20
2023-12-16T12:11:38.858Z,102005.60
2023-12-16T12:14:07.014Z,101997.00
2023-12-16T12:16:35.509Z,101998.20
2023-12-16T12:19:03.838Z,101992.40
2023-12-16T12:21:36.612Z,101994.60
2023-12-16T12:24:06.319Z,101997.60
2023-12-16T12:26:34.820Z,102003.80
2023-12-16T12:29:05.654Z,101998.40
2023-12-16T12:31:46.933Z,102000.40
2023-12-16T12:34:23.462Z,102005.40
2023-12-16T12:39:42.972Z,101993.80
2023-12-16T12:42:11.173Z,101990.40
2023-12-16T12:44:39.443Z,101986.80
2023-12-16T12:47:07.555Z,101980.00
2023-12-16T12:49:36.490Z,101978.40
2023-12-16T12:52:04.967Z,101981.20
2023-12-16T12:54:46.100Z,101983.00
2023-12-16T12:57:22.283Z,101984.80
2023-12-16T13:00:00.255Z,101977.20
2023-12-16T13:02:32.560Z,101987.80
2023-12-16T13:05:00.883Z,101969.60
2023-12-16T13:07:29.267Z,101980.20
2023-12-16T13:09:57.508Z,101977.20
2023-12-16T13:12:25.890Z,101964.40
2023-12-16T13:14:53.980Z,101966.00
2023-12-16T13:17:22.119Z,101967.00
2023-12-16T13:19:50.231Z,101959.00
2023-12-16T13:22:18.570Z,101962.80
2023-12-16T13:24:46.961Z,101953.20
2023-12-16T13:27:15.049Z,101955.00
2023-12-16T13:29:43.120Z,101955.00
2023-12-16T13:32:11.193Z,101958.20
2023-12-16T13:34:42.163Z,101949.80
2023-12-16T13:37:10.818Z,101949.80
2023-12-16T13:39:41.544Z,101953.80
2023-12-16T13:42:09.644Z,101962.40
2023-12-16T13:44:39.495Z,101957.40
2023-12-16T13:47:07.555Z,101955.20
2023-12-16T13:49:35.738Z,101951.40
2023-12-16T13:52:09.184Z,101949.00
2023-12-16T13:54:37.531Z,101941.20
2023-12-16T13:57:06.650Z,101941.80
2023-12-16T13:59:35.656Z,101926.80
2023-12-16T14:02:04.471Z,101918.80
2023-12-16T14:04:32.552Z,101918.60
2023-12-16T14:07:01.035Z,101916.60
2023-12-16T14:09:29.400Z,101917.00
2023-12-16T14:11:57.941Z,101906.00
2023-12-16T14:14:28.724Z,101929.80
2023-12-16T14:16:56.818Z,101917.20
2023-12-16T14:19:25.246Z,101917.80
2023-12-16T14:21:53.659Z,101913.60
2023-12-16T14:24:21.798Z,101917.00
2023-12-16T14:26:49.963Z,101912.00
2023-12-16T14:29:18.079Z,101911.60
2023-12-16T14:31:50.470Z,101912.20
2023-12-16T14:34:20.480Z,101917.80
2023-12-16T14:36:49.562Z,101914.60
2023-12-16T14:39:18.825Z,101914.20
2023-12-16T14:41:47.080Z,101911.60
2023-12-16T14:44:15.110Z,101908.60
2023-12-16T14:46:43.148Z,101907.80
2023-12-16T14:49:12.584Z,101905.00
2023-12-16T14:51:40.978Z,101899.80
2023-12-16T14:54:09.166Z,101899.80
2023-12-16T14:56:38.403Z,101898.80
2023-12-16T14:59:06.644Z,101904.20
2023-12-16T15:01:34.651Z,101905.20
2023-12-16T15:04:03.321Z,101910.20
2023-12-16T15:06:31.729Z,101908.20
2023-12-16T15:09:00.274Z,101905.60
2023-12-16T15:11:29.078Z,101904.20
2023-12-16T15:13:57.098Z,101908.60
2023-12-16T15:16:25.229Z,101906.40
2023-12-16T15:18:53.449Z,101899.80
2023-12-16T15:21:21.673Z,101900.60
2023-12-16T15:23:49.716Z,101901.40
2023-12-16T15:26:17.919Z,101884.20
2023-12-16T15:28:48.546Z,101884.20
2023-12-16T15:31:17.820Z,101882.20
2023-12-16T15:33:46.064Z,101891.00
2023-12-16T15:36:14.365Z,101893.80
2023-12-16T15:38:42.948Z,101883.20
2023-12-16T15:41:18.393Z,101883.00
2023-12-16T15:43:47.176Z,101878.40
2023-12-16T15:46:15.540Z,101871.40
2023-12-16T15:48:43.811Z,101863.80
2023-12-16T15:51:12.175Z,101863.20
2023-12-16T15:53:41.777Z,101872.60
2023-12-16T15:56:10.083Z,101872.80
2023-12-16T15:58:38.450Z,101871.80
2023-12-16T16:01:06.883Z,101878.40
2023-12-16T16:03:36.651Z,101871.20
2023-12-16T16:06:05.457Z,101877.00
2023-12-16T16:08:33.660Z,101867.20
2023-12-16T16:11:01.695Z,101856.80
2023-12-16T16:13:29.795Z,101858.00
2023-12-16T16:15:58.077Z,101853.40
2023-12-16T16:18:26.260Z,101851.60
2023-12-16T16:20:54.531Z,101840.20
2023-12-16T16:23:22.608Z,101826.40
2023-12-16T16:25:51.564Z,101832.20
2023-12-16T16:28:19.637Z,101826.20
2023-12-16T16:30:47.883Z,101834.60
2023-12-16T16:33:16.206Z,101835.60
2023-12-16T16:35:44.512Z,101842.20
2023-12-16T16:38:12.659Z,101834.20
2023-12-16T16:40:41.231Z,101825.60
2023-12-16T16:43:09.289Z,101821.40
2023-12-16T16:45:37.636Z,101828.80
2023-12-16T16:48:06.335Z,101834.20
2023-12-16T16:50:34.754Z,101830.00
2023-12-16T16:53:03.145Z,101827.00
2023-12-16T16:55:32.658Z,101826.20
2023-12-16T16:58:00.909Z,101826.80
2023-12-16T17:00:29.082Z,101833.80
2023-12-16T17:02:58.042Z,101827.00
2023-12-16T17:05:26.634Z,101835.40
2023-12-16T17:07:55.216Z,101833.80
2023-12-16T17:10:23.289Z,101832.40
2023-12-16T17:12:51.398Z,101826.40
2023-12-16T17:15:19.577Z,101810.40
2023-12-16T17:17:47.873Z,101805.20
2023-12-16T17:20:16.012Z,101800.20
2023-12-16T17:22:44.407Z,101791.20
2023-12-16T17:25:12.554Z,101789.80
2023-12-16T17:27:41.034Z,101788.80
2023-12-16T17:30:10.428Z,101785.60
2023-12-16T17:32:38.907Z,101793.80
2023-12-16T17:35:07.949Z,101793.80
2023-12-16T17:37:36.136Z,101794.20
2023-12-16T17:40:04.855Z,101787.20
2023-12-16T17:42:33.883Z,101792.80
2023-12-16T17:45:02.279Z,101796.60
2023-12-16T17:47:30.708Z,101804.00
2023-12-16T17:49:58.736Z,101802.60
2023-12-16T17:52:26.853Z,101792.20
2023-12-16T17:54:55.575Z,101793.00
2023-12-16T17:57:23.678Z,101793.40
2023-12-16T17:59:51.805Z,101795.00
2023-12-16T18:02:19.842Z,101784.00
2023-12-16T18:04:49.236Z,101781.40
2023-12-16T18:07:17.310Z,101782.00
2023-12-16T18:09:45.449Z,101783.00
2023-12-16T18:12:13.607Z,101779.40
2023-12-16T18:14:41.686Z,101774.40
2023-12-16T18:17:10.957Z,101777.80
2023-12-16T18:19:39.171Z,101771.60
2023-12-16T18:22:07.927Z,101771.60
2023-12-16T18:24:36.639Z,101786.20
2023-12-16T18:27:05.151Z,101794.20
2023-12-16T18:29:37.641Z,101788.00
2023-12-16T18:32:08.888Z,101784.00
2023-12-16T18:34:37.064Z,101777.40
2023-12-16T18:37:05.235Z,101786.40
2023-12-16T18:39:35.717Z,101798.40
2023-12-16T18:42:04.316Z,101799.20
2023-12-16T18:44:32.437Z,101802.00
2023-12-16T18:47:00.533Z,101802.00
2023-12-16T18:49:28.690Z,101807.20
2023-12-16T18:51:57.119Z,101812.20
2023-12-16T18:54:25.209Z,101802.40
2023-12-16T18:56:53.303Z,101796.60
2023-12-16T18:59:21.356Z,101785.20
2023-12-16T19:01:49.354Z,101780.60
2023-12-16T19:04:17.482Z,101774.00
2023-12-16T19:06:45.508Z,101764.80
2023-12-16T19:09:13.685Z,101764.20
2023-12-16T19:11:42.710Z,101760.00
2023-12-16T19:14:10.770Z,101759.60
2023-12-16T19:16:38.814Z,101759.40
2023-12-16T19:19:07.291Z,101764.00
2023-12-16T19:21:35.478Z,101761.20
2023-12-16T19:24:04.459Z,101749.60
2023-12-16T19:26:32.525Z,101758.20
2023-12-16T19:29:00.530Z,101746.60
2023-12-16T19:31:28.576Z,101728.00
2023-12-16T19:33:57.008Z,101729.20
2023-12-16T19:36:26.643Z,101729.00
2023-12-16T19:38:54.793Z,101724.20
2023-12-16T19:41:23.327Z,101715.00
2023-12-16T19:43:51.467Z,101701.20
2023-12-16T19:46:19.611Z,101687.40
2023-12-16T19:48:47.774Z,101678.00
2023-12-16T19:51:15.963Z,101662.80
2023-12-16T19:53:44.809Z,101664.00
2023-12-16T19:56:13.686Z,101654.00
2023-12-16T19:58:42.032Z,101658.60
2023-12-16T20:01:11.277Z,101650.60
2023-12-16T20:03:39.640Z,101649.60
2023-12-16T20:06:08.141Z,101654.00
2023-12-16T20:08:36.295Z,101647.00
2023-12-16T20:11:10.496Z,101643.20
2023-12-16T20:13:39.862Z,101649.80
2023-12-16T20:16:08.479Z,101646.00
2023-12-16T20:18:36.655Z,101636.40
2023-12-16T20:21:05.306Z,101634.00
2023-12-16T20:23:33.429Z,101636.00
2023-12-16T20:26:01.489Z,101626.60
2023-12-16T20:28:29.956Z,101631.40
2023-12-16T20:30:58.585Z,101626.40
2023-12-16T20:33:26.790Z,101636.00
2023-12-16T20:35:55.008Z,101634.60
2023-12-16T20:38:41.830Z,101629.00
2023-12-16T20:41:13.394Z,101627.00
2023-12-16T20:43:41.875Z,101633.20
2023-12-16T20:46:10.318Z,101610.60
2023-12-16T20:48:43.129Z,101599.00
2023-12-16T20:51:12.651Z,101589.00
2023-12-16T20:53:43.113Z,101586.60
2023-12-16T20:56:12.363Z,101592.40
2023-12-16T20:58:40.462Z,101589.40
2023-12-16T21:01:08.839Z,101606.80
2023-12-16T21:03:37.152Z,101609.80
2023-12-16T21:06:05.732Z,101602.60
2023-12-16T21:08:33.971Z,101611.00
2023-12-16T21:11:02.190Z,101614.60
2023-12-16T21:13:30.211Z,101609.20
2023-12-16T21:15:58.438Z,101606.60
2023-12-16T21:18:27.185Z,101617.80
2023-12-16T21:20:55.446Z,101626.00
2023-12-16T21:23:25.141Z,101625.80
2023-12-16T21:25:53.212Z,101625.00
2023-12-16T21:28:21.210Z,101622.40
2023-12-16T21:30:49.215Z,101631.20
2023-12-16T21:33:24.921Z,101636.20
2023-12-16T21:35:53.451Z,101636.60
2023-12-16T21:38:21.558Z,101634.20
2023-12-16T21:40:49.998Z,101634.20
2023-12-16T21:43:18.006Z,101648.40
2023-12-16T21:45:46.065Z,101649.20
2023-12-16T21:48:14.416Z,101652.40
2023-12-16T21:50:42.734Z,101656.00
2023-12-16T21:53:10.861Z,101653.20
2023-12-16T21:55:38.866Z,101656.00
2023-12-16T21:58:08.067Z,101655.40
2023-12-16T22:00:36.634Z,101649.60
2023-12-16T22:03:05.141Z,101645.40
2023-12-16T22:05:33.333Z,101638.80
2023-12-16T22:08:03.321Z,101635.60
2023-12-16T22:10:33.013Z,101633.80
2023-12-16T22:13:01.294Z,101635.60
2023-12-16T22:15:29.379Z,101630.60
2023-12-16T22:17:57.586Z,101636.00
2023-12-16T22:20:25.818Z,101635.40
2023-12-16T22:22:53.846Z,101638.60
2023-12-16T22:25:21.928Z,101630.80
2023-12-16T22:27:49.968Z,101631.60
2023-12-16T22:30:18.151Z,101628.60
2023-12-16T22:32:46.361Z,101642.80
2023-12-16T22:35:14.862Z,101644.60
2023-12-16T22:37:42.948Z,101654.40
2023-12-16T22:40:11.235Z,101653.60
2023-12-16T22:42:39.288Z,101652.80
2023-12-16T22:45:09.939Z,101650.00
2023-12-16T22:47:39.441Z,101653.20
2023-12-16T22:50:09.098Z,101644.80
2023-12-16T22:52:37.523Z,101649.80
2023-12-16T22:55:09.071Z,101639.40
2023-12-16T22:57:37.392Z,101641.60
2023-12-16T23:00:27.184Z,101629.80
2023-12-16T23:02:56.379Z,101637.20
2023-12-16T23:05:24.707Z,101629.80
2023-12-16T23:07:53.277Z,101634.00
2023-12-16T23:10:25.821Z,101623.60
2023-12-16T23:12:57.749Z,101635.40
2023-12-16T23:15:25.924Z,101632.20
2023-12-16T23:17:54.299Z,101629.40
2023-12-16T23:20:22.686Z,101636.20
2023-12-16T23:22:50.685Z,101619.00
2023-12-16T23:25:18.901Z,101626.60
2023-12-16T23:27:46.961Z,101609.20
2023-12-16T23:30:15.182Z,101602.80
2023-12-16T23:32:44.097Z,101587.60
2023-12-16T23:35:12.546Z,101591.20
2023-12-16T23:37:40.879Z,101582.40
2023-12-16T23:40:10.028Z,101580.00
2023-12-16T23:42:38.368Z,101578.20
2023-12-16T23:45:07.035Z,101562.00
2023-12-16T23:47:35.186Z,101560.00
2023-12-16T23:50:03.409Z,101548.80
2023-12-16T23:52:32.626Z,101546.00
2023-12-16T23:55:00.799Z,101526.20
2023-12-16T23:57:29.064Z,101526.00
2023-12-16T23:59:57.258Z,101526.20
